Time;durP1;ratioP1;P1;durP2;ratioP2;P2;SDS_P1;SDS_P2;PMS_P1;PMS_P2;Temp;Humidity;BMP_temperature;BMP_pressure;BME280_temperature;BME280_humidity;BME280_pressure;Samples;Min_cycle;Max_cycle;Signal;HPM_P1;HPM_P2
2022/11/16 15:03:28;;;;;;;5.53;3.70;;;12.60;66.20;;;;;;6312754;22;20041;-72
2022/11/16 15:05:59;;;;;;;6.75;3.80;;;12.60;66.50;;;;;;6269895;22;20012;-79
2022/11/16 15:08:32;;;;;;;5.30;3.70;;;12.60;66.60;;;;;;6250410;22;20008;-73
2022/11/16 15:10:58;;;;;;;9.85;4.53;;;12.50;66.50;;;;;;6277362;22;20000;-72
2022/11/16 15:13:24;;;;;;;6.00;3.72;;;12.60;66.80;;;;;;6276668;22;20322;-75
2022/11/16 15:16:13;;;;;;;6.28;3.92;;;12.50;66.80;;;;;;6276215;22;19996;-71
2022/11/16 15:18:39;;;;;;;6.55;3.78;;;12.50;66.90;;;;;;6276018;22;20004;-68
2022/11/16 15:21:05;;;;;;;5.10;3.75;;;12.50;66.90;;;;;;6276568;22;20373;-68
2022/11/16 15:23:31;;;;;;;6.32;4.20;;;12.50;66.80;;;;;;6276558;22;20015;-68
2022/11/16 15:25:59;;;;;;;7.50;4.65;;;12.50;66.90;;;;;;6276617;22;20071;-68
2022/11/16 15:28:30;;;;;;;7.65;4.47;;;12.50;67.00;;;;;;6276354;22;20000;-68
2022/11/16 15:31:03;;;;;;;6.88;4.45;;;12.50;67.10;;;;;;6276382;22;19999;-69
2022/11/16 15:33:38;;;;;;;7.55;5.45;;;12.50;67.10;;;;;;6276649;22;20000;-70
2022/11/16 15:36:27;;;;;;;8.70;5.53;;;12.50;67.20;;;;;;6276539;22;20006;-70
2022/11/16 15:38:54;;;;;;;8.05;5.45;;;12.40;67.20;;;;;;6256110;22;20008;-70
2022/11/16 15:41:21;;;;;;;9.70;5.93;;;12.50;67.30;;;;;;6276590;22;20000;-75
2022/11/16 15:43:54;;;;;;;7.47;4.97;;;12.40;67.20;;;;;;6276338;22;20025;-76
2022/11/16 15:46:21;;;;;;;6.95;5.03;;;12.40;68.00;;;;;;6249007;22;20011;-75
2022/11/16 15:48:53;;;;;;;7.22;4.95;;;12.40;67.30;;;;;;6275955;22;19999;-70
2022/11/16 15:51:26;;;;;;;8.82;5.28;;;12.40;67.30;;;;;;6276407;22;20000;-69
2022/11/16 15:54:10;;;;;;;7.40;4.80;;;12.40;67.30;;;;;;6275950;22;20366;-74
2022/11/16 15:56:36;;;;;;;9.85;5.38;;;12.40;67.40;;;;;;6276552;22;20000;-72
2022/11/16 15:59:11;;;;;;;8.07;5.18;;;12.40;67.40;;;;;;6276760;22;20000;-77
2022/11/16 16:01:44;;;;;;;8.68;5.47;;;12.40;67.60;;;;;;6248693;22;20003;-75
2022/11/16 16:04:16;;;;;;;7.57;5.38;;;12.40;67.60;;;;;;6254369;22;20438;-75
2022/11/16 16:06:53;;;;;;;7.70;5.22;;;12.40;67.60;;;;;;6307178;22;20003;-77
2022/11/16 16:09:30;;;;;;;7.88;4.88;;;12.40;67.60;;;;;;6279969;22;20018;-75
2022/11/16 16:12:38;;;;;;;6.90;5.20;;;12.40;67.60;;;;;;6307295;22;20003;-78
2022/11/16 16:15:39;;;;;;;10.35;6.82;;;12.40;67.60;;;;;;6278604;22;20338;-83
2022/11/16 16:18:39;;;;;;;10.15;6.53;;;12.40;67.50;;;;;;6153014;23;20461;-76
2022/11/16 16:21:02;;;;;;;9.70;6.00;;;12.40;67.80;;;;;;6152445;23;20005;-74
2022/11/16 16:23:27;;;;;;;10.63;6.50;;;12.40;67.70;;;;;;6152527;23;20080;-74
2022/11/16 16:25:53;;;;;;;9.38;6.03;;;12.40;67.70;;;;;;6153000;23;20033;-73
2022/11/16 16:28:19;;;;;;;8.63;5.57;;;12.40;67.70;;;;;;6128073;23;20009;-73
2022/11/16 16:30:45;;;;;;;10.65;7.30;;;12.40;67.70;;;;;;6152032;23;20010;-72
2022/11/16 16:33:21;;;;;;;9.40;6.53;;;12.40;67.80;;;;;;6211013;22;20106;-77
2022/11/16 16:35:49;;;;;;;9.52;5.93;;;12.40;67.80;;;;;;6306021;22;20458;-79
2022/11/16 16:38:15;;;;;;;8.80;5.63;;;12.40;67.80;;;;;;6280198;22;20007;-80
2022/11/16 16:40:41;;;;;;;8.73;6.68;;;12.40;68.00;;;;;;6280269;22;20420;-80
2022/11/16 16:43:07;;;;;;;8.25;5.80;;;12.40;68.00;;;;;;6280548;22;20077;-80
2022/11/16 16:45:42;;;;;;;9.98;6.25;;;12.50;68.10;;;;;;6279590;22;20058;-73
2022/11/16 16:48:10;;;;;;;11.45;6.78;;;12.40;68.20;;;;;;6307579;22;19995;-73
2022/11/16 16:50:36;;;;;;;9.40;6.50;;;12.50;68.30;;;;;;6280201;22;20004;-73
2022/11/16 16:53:02;;;;;;;13.55;7.63;;;12.50;68.30;;;;;;6307529;22;20040;-73
2022/11/16 16:55:28;;;;;;;11.63;6.90;;;12.50;68.40;;;;;;6307642;22;20002;-73
2022/11/16 16:57:58;;;;;;;8.63;6.38;;;12.50;68.20;;;;;;6280391;22;19999;-73
2022/11/16 17:00:24;;;;;;;7.60;5.80;;;12.50;68.20;;;;;;6280125;22;20003;-73
2022/11/16 17:02:57;;;;;;;8.63;6.15;;;12.50;68.00;;;;;;6280039;22;19999;-73
2022/11/16 17:05:25;;;;;;;9.15;6.22;;;12.50;68.00;;;;;;6279917;22;20027;-73
2022/11/16 17:07:57;;;;;;;7.68;4.57;;;12.50;67.80;;;;;;6307322;22;20082;-73
2022/11/16 17:10:23;;;;;;;9.15;6.32;;;12.50;67.90;;;;;;6280080;22;20022;-73
2022/11/16 17:12:52;;;;;;;9.05;5.85;;;12.50;67.80;;;;;;6279505;22;20360;-77
2022/11/16 17:15:22;;;;;;;9.00;6.32;;;12.50;67.70;;;;;;6306222;22;19995;-76
2022/11/16 17:17:50;;;;;;;9.70;6.38;;;12.40;67.70;;;;;;6305678;22;20000;-71
2022/11/16 17:20:23;;;;;;;8.13;5.63;;;12.50;67.70;;;;;;6307272;22;20014;-71
2022/11/16 17:22:49;;;;;;;6.63;5.18;;;12.40;67.80;;;;;;6278965;22;20311;-71
2022/11/16 17:25:14;;;;;;;6.43;5.00;;;12.40;67.90;;;;;;6279846;22;19999;-71
2022/11/16 17:27:41;;;;;;;6.47;4.50;;;12.40;67.90;;;;;;6279614;22;19999;-71
2022/11/16 17:30:07;;;;;;;9.38;5.15;;;12.50;67.90;;;;;;6307486;22;20038;-71
2022/11/16 17:32:36;;;;;;;8.48;5.03;;;12.40;67.80;;;;;;6307356;22;19999;-71
2022/11/16 17:35:02;;;;;;;8.65;6.20;;;12.40;67.90;;;;;;6276507;22;20017;-71
2022/11/16 17:37:29;;;;;;;6.50;5.15;;;12.40;68.00;;;;;;6278717;22;20000;-72
2022/11/16 17:39:55;;;;;;;10.25;6.70;;;12.40;67.90;;;;;;6302991;22;20003;-71
2022/11/16 17:42:21;;;;;;;8.93;5.20;;;12.40;67.80;;;;;;6278309;22;20435;-71
2022/11/16 17:44:48;;;;;;;6.65;4.45;;;12.40;67.90;;;;;;6278650;22;19996;-71
2022/11/16 17:47:16;;;;;;;6.53;4.68;;;12.40;67.90;;;;;;6278622;22;20003;-71
2022/11/16 17:49:42;;;;;;;6.30;4.40;;;12.30;67.80;;;;;;6278213;22;20015;-71
2022/11/16 17:52:08;;;;;;;6.60;4.53;;;12.30;67.90;;;;;;6278491;22;20018;-71
2022/11/16 17:54:34;;;;;;;8.40;4.50;;;12.30;68.00;;;;;;6276718;22;20007;-71
2022/11/16 17:57:00;;;;;;;9.07;4.90;;;12.30;68.00;;;;;;6278448;22;20019;-71
2022/11/16 17:59:26;;;;;;;11.98;5.93;;;12.30;68.10;;;;;;6278124;22;20007;-71
2022/11/16 18:01:53;;;;;;;12.40;5.75;;;12.20;68.10;;;;;;6278349;22;19999;-71
2022/11/16 18:04:19;;;;;;;26.85;6.72;;;12.20;68.10;;;;;;6278151;22;20003;-71
2022/11/16 18:06:45;;;;;;;12.18;6.05;;;12.20;68.10;;;;;;6277802;22;20032;-71
2022/11/16 18:09:11;;;;;;;12.02;5.95;;;12.20;68.20;;;;;;6276498;22;20012;-71
2022/11/16 18:11:41;;;;;;;15.70;5.72;;;12.20;68.20;;;;;;6278269;22;20024;-71
2022/11/16 18:14:09;;;;;;;20.45;5.53;;;12.20;68.20;;;;;;6278180;22;20070;-71
2022/11/16 18:16:35;;;;;;;9.13;5.35;;;12.20;68.20;;;;;;6278232;22;20042;-71
2022/11/16 18:19:05;;;;;;;10.32;5.78;;;12.20;68.30;;;;;;6277991;22;20412;-71
2022/11/16 18:21:41;;;;;;;6.82;4.95;;;12.20;68.30;;;;;;6246496;22;20433;-71
2022/11/16 18:24:08;;;;;;;9.07;5.82;;;12.20;68.30;;;;;;6278199;22;20412;-71
2022/11/16 18:26:34;;;;;;;6.97;5.00;;;12.20;68.30;;;;;;6277142;22;20010;-71
2022/11/16 18:29:00;;;;;;;8.98;5.28;;;12.10;68.20;;;;;;6277807;22;20053;-71
2022/11/16 18:31:28;;;;;;;7.75;4.70;;;12.20;68.30;;;;;;6278198;22;19996;-71
2022/11/16 18:33:54;;;;;;;13.07;5.43;;;12.20;68.30;;;;;;6277576;22;20333;-71
2022/11/16 18:36:21;;;;;;;10.43;4.75;;;12.10;68.20;;;;;;6278187;22;20003;-71
2022/11/16 18:38:49;;;;;;;10.65;5.35;;;12.20;68.30;;;;;;6250942;22;19999;-71
2022/11/16 18:41:18;;;;;;;9.90;5.60;;;12.10;68.20;;;;;;6277789;22;20029;-71
2022/11/16 18:43:50;;;;;;;6.68;4.93;;;12.20;68.20;;;;;;6278078;22;20003;-71
2022/11/16 18:46:25;;;;;;;12.57;5.28;;;12.10;68.10;;;;;;6250555;22;20004;-71
2022/11/16 18:48:53;;;;;;;7.82;4.97;;;12.10;68.10;;;;;;6250843;22;20004;-71
2022/11/16 18:51:21;;;;;;;9.43;5.30;;;12.10;68.10;;;;;;6277979;22;19999;-71
2022/11/16 18:53:48;;;;;;;11.02;5.93;;;12.10;68.20;;;;;;6277919;22;20065;-71
2022/11/16 18:56:14;;;;;;;9.80;5.20;;;12.10;68.20;;;;;;6250634;22;20004;-71
2022/11/16 18:58:41;;;;;;;11.85;6.25;;;12.10;68.20;;;;;;6250838;22;20029;-71
2022/11/16 19:01:11;;;;;;;11.10;6.95;;;12.00;68.10;;;;;;6277872;22;20010;-70
2022/11/16 19:03:38;;;;;;;9.40;6.25;;;12.00;68.10;;;;;;6277959;22;20003;-71
2022/11/16 19:06:07;;;;;;;9.23;6.18;;;11.90;67.90;;;;;;6277915;22;20000;-71
2022/11/16 19:08:34;;;;;;;9.43;6.32;;;11.90;67.90;;;;;;6277475;22;20003;-71
2022/11/16 19:11:10;;;;;;;10.55;5.65;;;11.80;67.90;;;;;;6277567;22;20011;-71
2022/11/16 19:13:40;;;;;;;9.10;6.05;;;11.80;68.00;;;;;;6250994;22;20443;-71
2022/11/16 19:16:07;;;;;;;8.88;5.45;;;11.70;68.20;;;;;;6277429;22;19995;-71
2022/11/16 19:18:34;;;;;;;8.07;5.40;;;11.70;68.30;;;;;;6277781;22;20003;-71
2022/11/16 19:21:09;;;;;;;6.72;5.20;;;11.60;68.40;;;;;;6250450;22;20011;-71
2022/11/16 19:23:36;;;;;;;8.18;4.95;;;11.50;68.40;;;;;;6277745;22;20084;-71
2022/11/16 19:26:03;;;;;;;9.02;5.55;;;11.50;68.50;;;;;;6277755;22;19999;-71
2022/11/16 19:28:43;;;;;;;10.75;5.20;;;11.40;68.60;;;;;;6249971;22;20007;-70
2022/11/16 19:31:15;;;;;;;8.57;4.82;;;11.40;68.70;;;;;;6277260;22;20007;-70
2022/11/16 19:33:43;;;;;;;8.05;5.50;;;11.30;68.80;;;;;;6277086;22;20023;-71
2022/11/16 19:36:17;;;;;;;8.30;5.18;;;11.30;69.00;;;;;;6277362;22;20000;-71
2022/11/16 19:38:44;;;;;;;7.30;5.20;;;11.20;69.20;;;;;;6277565;22;19999;-70
2022/11/16 19:41:13;;;;;;;7.70;5.53;;;11.10;69.30;;;;;;6250180;22;20053;-71
2022/11/16 19:43:39;;;;;;;8.55;5.63;;;11.10;69.50;;;;;;6277163;22;20000;-71
2022/11/16 19:46:08;;;;;;;7.43;5.32;;;11.10;69.60;;;;;;6277365;22;20031;-70
2022/11/16 19:48:36;;;;;;;7.65;5.30;;;11.00;69.70;;;;;;6277453;22;20355;-71
2022/11/16 19:51:07;;;;;;;7.50;5.20;;;11.00;69.90;;;;;;6277225;22;20011;-71
2022/11/16 19:53:34;;;;;;;9.68;5.90;;;10.90;70.00;;;;;;6277408;22;20003;-71
2022/11/16 19:56:00;;;;;;;8.45;5.30;;;10.90;70.10;;;;;;6249992;22;20451;-70
2022/11/16 19:58:27;;;;;;;11.65;5.43;;;10.80;70.20;;;;;;6277128;22;20000;-70
2022/11/16 20:01:11;;;;;;;8.55;5.78;;;10.80;70.30;;;;;;6224958;22;20012;-70
2022/11/16 20:03:41;;;;;;;8.30;5.65;;;10.80;70.20;;;;;;6277312;22;20006;-70
2022/11/16 20:06:14;;;;;;;10.45;6.20;;;10.70;70.30;;;;;;6251056;22;20028;-71
2022/11/16 20:08:45;;;;;;;7.55;5.22;;;10.70;70.40;;;;;;6277273;22;20074;-70
2022/11/16 20:11:19;;;;;;;10.38;5.97;;;10.70;70.50;;;;;;6249885;22;20424;-70
2022/11/16 20:13:47;;;;;;;11.38;6.65;;;10.60;70.40;;;;;;6249981;22;20469;-70
2022/11/16 20:16:14;;;;;;;12.43;7.03;;;10.60;70.30;;;;;;6250077;22;20008;-70
2022/11/16 20:18:41;;;;;;;8.23;5.45;;;10.50;70.20;;;;;;6277150;22;19996;-70
2022/11/16 20:21:19;;;;;;;9.93;6.22;;;10.50;70.30;;;;;;6249766;22;20003;-70
2022/11/16 20:23:46;;;;;;;11.55;6.35;;;10.50;70.40;;;;;;6276734;22;20448;-70
2022/11/16 20:26:14;;;;;;;8.50;6.10;;;10.40;70.50;;;;;;6277031;22;20062;-70
2022/11/16 20:28:45;;;;;;;7.15;5.43;;;10.40;70.60;;;;;;6276888;22;20003;-70
2022/11/16 20:31:13;;;;;;;19.98;12.07;;;10.40;70.80;;;;;;6249807;22;20003;-70
2022/11/16 20:33:40;;;;;;;17.00;9.45;;;10.30;70.90;;;;;;6244147;23;20082;-71
2022/11/16 20:36:10;;;;;;;14.63;6.53;;;10.30;71.20;;;;;;6246443;22;20356;-70
2022/11/16 20:38:38;;;;;;;9.35;5.97;;;10.30;71.40;;;;;;6246221;22;20075;-70
2022/11/16 20:41:09;;;;;;;13.32;6.15;;;10.30;71.60;;;;;;6245915;22;20420;-70
2022/11/16 20:43:38;;;;;;;9.52;5.65;;;10.30;71.80;;;;;;6246044;22;20447;-70
2022/11/16 20:46:06;;;;;;;8.70;5.18;;;10.40;72.10;;;;;;6246344;22;20000;-70
2022/11/16 20:48:32;;;;;;;8.43;4.97;;;10.40;72.10;;;;;;6245888;22;20396;-70
2022/11/16 20:50:58;;;;;;;11.35;5.47;;;10.40;72.10;;;;;;6269884;22;20095;-70
2022/11/16 20:53:25;;;;;;;8.60;4.93;;;10.40;72.70;;;;;;6270101;22;20007;-70
2022/11/16 20:55:51;;;;;;;8.73;5.15;;;10.50;71.90;;;;;;6269812;22;20424;-71
2022/11/16 20:58:17;;;;;;;8.07;4.43;;;10.50;71.80;;;;;;6245850;22;20321;-71
2022/11/16 21:00:46;;;;;;;10.40;6.03;;;10.60;71.90;;;;;;6244364;23;20433;-71
2022/11/16 21:03:12;;;;;;;9.40;5.38;;;10.60;71.80;;;;;;6245694;22;20002;-71
2022/11/16 21:05:48;;;;;;;16.65;5.18;;;10.70;71.90;;;;;;6246242;22;19993;-71
2022/11/16 21:08:15;;;;;;;13.52;5.07;;;10.70;71.90;;;;;;6246232;22;20023;-71
2022/11/16 21:10:41;;;;;;;9.57;4.60;;;10.80;71.80;;;;;;6246531;22;20008;-71
2022/11/16 21:16:00;;;;;;;7.07;4.53;;;10.90;71.70;;;;;;6246650;23;20486;-70
2022/11/16 21:18:28;;;;;;;8.75;4.70;;;10.90;71.30;;;;;;6246801;22;19996;-71
2022/11/16 21:21:02;;;;;;;6.90;4.45;;;11.00;71.10;;;;;;6246769;22;20008;-71
2022/11/16 21:23:33;;;;;;;6.50;4.53;;;11.00;70.90;;;;;;6246783;22;20309;-70
2022/11/16 21:26:06;;;;;;;7.18;4.65;;;11.00;70.60;;;;;;6246937;22;20083;-70
2022/11/16 21:28:33;;;;;;;6.95;4.25;;;11.00;70.30;;;;;;6246814;22;19996;-70
2022/11/16 21:31:03;;;;;;;5.35;3.95;;;10.90;69.90;;;;;;6246621;22;20008;-70
2022/11/16 21:33:30;;;;;;;6.72;4.53;;;10.90;69.70;;;;;;6246480;22;20026;-70
2022/11/16 21:35:58;;;;;;;6.78;4.47;;;10.80;69.40;;;;;;6247003;23;19997;-70
2022/11/16 21:38:30;;;;;;;6.35;4.75;;;10.80;69.30;;;;;;6219470;23;20055;-70
2022/11/16 21:41:03;;;;;;;5.90;4.53;;;10.70;69.20;;;;;;6246738;23;20000;-71
2022/11/16 21:43:30;;;;;;;8.18;5.28;;;10.60;69.20;;;;;;6219733;23;20320;-70
2022/11/16 21:46:25;;;;;;;7.20;5.32;;;10.60;69.40;;;;;;6246674;23;19996;-70
2022/11/16 21:48:53;;;;;;;9.25;5.05;;;10.50;69.50;;;;;;6246021;23;20039;-70
2022/11/16 21:51:24;;;;;;;6.75;4.15;;;10.40;69.40;;;;;;6246538;23;20026;-70
2022/11/16 21:53:52;;;;;;;8.57;4.95;;;10.40;69.50;;;;;;6244984;23;20413;-70
2022/11/16 21:56:21;;;;;;;11.68;6.15;;;10.30;69.50;;;;;;6246496;23;20053;-70
2022/11/16 21:58:51;;;;;;;12.68;6.80;;;10.20;70.00;;;;;;6219488;23;20004;-70
2022/11/16 22:01:18;;;;;;;11.23;6.78;;;10.20;70.30;;;;;;6219398;23;20095;-70
2022/11/16 22:07:31;;;;;;;12.13;6.63;;;10.10;70.40;;;;;;6219240;23;20375;-69
2022/11/16 22:09:20;;;;;;;9.10;4.90;;;10.10;70.40;;;;;;6246107;23;20085;-70
2022/11/16 22:11:45;;;;;;;7.82;4.60;;;10.00;70.20;;;;;;6246701;23;20000;-70
2022/11/16 22:14:11;;;;;;;7.10;4.28;;;10.00;70.00;;;;;;6246338;23;20325;-70
2022/11/16 22:16:37;;;;;;;7.18;4.40;;;10.00;70.00;;;;;;6246311;23;20054;-70
2022/11/16 22:19:06;;;;;;;7.82;4.85;;;9.90;70.00;;;;;;6245669;23;20008;-70
2022/11/16 22:21:34;;;;;;;7.50;4.72;;;9.90;70.30;;;;;;6246042;23;20007;-70
2022/11/16 22:24:01;;;;;;;7.72;5.10;;;9.90;70.70;;;;;;6219332;23;20008;-70
2022/11/16 22:26:30;;;;;;;8.77;6.28;;;9.90;71.10;;;;;;6246255;23;19996;-70
2022/11/16 22:28:57;;;;;;;13.05;7.60;;;9.90;71.10;;;;;;6219280;23;20028;-70
2022/11/16 22:31:26;;;;;;;15.20;6.93;;;9.90;71.00;;;;;;6247145;23;20027;-70
2022/11/16 22:33:52;;;;;;;9.05;5.70;;;10.00;71.00;;;;;;6270768;22;20043;-70
2022/11/16 22:36:18;;;;;;;12.20;5.40;;;10.00;71.10;;;;;;6309042;22;19991;-70
2022/11/16 22:38:46;;;;;;;12.27;7.07;;;10.00;71.10;;;;;;6281036;22;20090;-70
2022/11/16 22:41:12;;;;;;;9.02;5.68;;;9.90;71.00;;;;;;6308370;22;20004;-71
2022/11/16 22:43:39;;;;;;;14.05;8.30;;;10.00;71.90;;;;;;6280867;22;20304;-71
2022/11/16 22:46:08;;;;;;;12.50;6.97;;;10.00;71.10;;;;;;6308615;22;20284;-70
2022/11/16 22:48:36;;;;;;;8.52;4.93;;;10.00;71.10;;;;;;6308218;22;20003;-70
2022/11/16 22:51:17;;;;;;;10.07;5.25;;;10.00;70.80;;;;;;6280230;22;20015;-70
2022/11/16 22:53:46;;;;;;;7.57;4.60;;;10.00;70.40;;;;;;6308195;22;20004;-71
2022/11/16 22:56:14;;;;;;;5.65;4.03;;;10.00;70.10;;;;;;6308234;22;19996;-70
2022/11/16 22:58:43;;;;;;;5.55;3.63;;;9.90;69.70;;;;;;6307780;22;20003;-70
2022/11/16 23:01:09;;;;;;;6.18;3.78;;;9.90;69.60;;;;;;6307102;22;20470;-71
2022/11/16 23:03:35;;;;;;;4.35;3.30;;;9.90;69.50;;;;;;6307306;22;19991;-71
2022/11/16 23:06:03;;;;;;;7.05;4.32;;;9.80;69.50;;;;;;6279935;22;20452;-71
2022/11/16 23:08:29;;;;;;;6.65;4.50;;;9.80;69.70;;;;;;6307486;22;20026;-71
2022/11/16 23:27:28;;;;;;;6.68;4.53;;;9.80;70.50;;;;;;6306914;22;20019;-71
2022/11/16 23:30:00;;;;;;;9.30;4.15;;;9.90;70.50;;;;;;6307537;22;20416;-70
2022/11/16 23:32:26;;;;;;;6.32;3.72;;;9.90;70.60;;;;;;6308078;22;20011;-71
2022/11/16 23:34:52;;;;;;;6.00;3.97;;;9.90;70.60;;;;;;6280571;22;20023;-71
2022/11/16 23:37:18;;;;;;;6.03;4.25;;;10.00;70.70;;;;;;6308216;22;20000;-70
2022/11/16 23:39:44;;;;;;;7.78;3.80;;;10.00;70.60;;;;;;6308334;22;20412;-70
2022/11/16 23:44:54;;;;;;;;;;;10.10;70.70;;;;;;6308564;22;20347;-72
2022/11/16 23:47:22;;;;;;;4.35;3.50;;;10.20;70.70;;;;;;6307867;22;19899;-70
2022/11/16 23:49:48;;;;;;;8.15;4.03;;;10.20;70.40;;;;;;6307492;22;20053;-71
2022/11/16 23:52:14;;;;;;;5.68;3.92;;;10.20;70.40;;;;;;6308381;22;20003;-71
2022/11/16 23:54:40;;;;;;;6.18;4.88;;;10.30;70.40;;;;;;6308363;22;19995;-70
2022/11/16 23:57:06;;;;;;;7.07;5.05;;;10.30;70.40;;;;;;6280922;22;19999;-71
2022/11/16 23:59:34;;;;;;;6.05;3.97;;;10.40;70.50;;;;;;6308267;22;20006;-70
